createdAt,value
2018-12-25T00:01:48.621Z,2.10
2018-12-25T00:04:37.416Z,2.10
2018-12-25T00:07:26.141Z,2.10
2018-12-25T00:10:14.926Z,2.10
2018-12-25T00:12:56.105Z,2.10
2018-12-25T00:15:37.395Z,2.00
2018-12-25T00:18:19.133Z,2.10
2018-12-25T00:20:48.998Z,2.10
2018-12-25T00:23:37.820Z,2.10
2018-12-25T00:26:26.681Z,2.10
2018-12-25T00:29:07.772Z,2.10
2018-12-25T00:31:49.377Z,2.00
2018-12-25T00:34:30.609Z,2.10
2018-12-25T00:37:12.405Z,2.00
2018-12-25T00:39:53.561Z,2.10
2018-12-25T00:42:35.287Z,2.10
2018-12-25T00:45:18.291Z,2.10
2018-12-25T00:47:59.194Z,2.10
2018-12-25T00:50:40.732Z,2.00
2018-12-25T00:53:22.225Z,2.10
2018-12-25T00:55:51.930Z,2.10
2018-12-25T00:58:40.723Z,2.10
2018-12-25T01:01:22.015Z,2.10
2018-12-25T01:03:51.775Z,2.10
2018-12-25T01:06:40.677Z,2.20
2018-12-25T01:09:29.491Z,2.20
2018-12-25T01:12:10.829Z,2.10
2018-12-25T01:14:52.128Z,2.20
2018-12-25T01:17:33.087Z,2.20
2018-12-25T01:20:14.382Z,2.20
2018-12-25T01:22:55.853Z,2.20
2018-12-25T01:25:37.143Z,2.20
2018-12-25T01:28:18.869Z,2.20
2018-12-25T01:31:00.106Z,2.20
2018-12-25T01:33:41.570Z,2.20
2018-12-25T01:36:22.771Z,2.20
2018-12-25T01:39:04.924Z,2.30
2018-12-25T01:41:46.037Z,2.30
2018-12-25T01:44:27.534Z,2.20
2018-12-25T01:46:57.643Z,2.30
2018-12-25T01:49:46.535Z,2.30
2018-12-25T01:52:35.296Z,2.20
2018-12-25T01:55:24.030Z,2.20
2018-12-25T01:58:12.912Z,2.10
2018-12-25T02:01:01.637Z,2.20
2018-12-25T02:03:50.765Z,2.10
2018-12-25T02:06:39.516Z,2.20
2018-12-25T02:09:28.352Z,2.10
2018-12-25T02:11:58.241Z,2.10
2018-12-25T02:14:39.481Z,2.10
2018-12-25T02:17:20.759Z,2.10
2018-12-25T02:20:02.066Z,2.10
2018-12-25T02:22:42.959Z,2.10
2018-12-25T02:25:24.073Z,2.10
2018-12-25T02:28:05.406Z,2.20
2018-12-25T02:30:46.638Z,2.20
2018-12-25T02:33:27.790Z,2.20
2018-12-25T02:35:57.906Z,2.20
2018-12-25T02:38:47.047Z,2.20
2018-12-25T02:41:35.832Z,2.30
2018-12-25T02:44:24.588Z,2.30
2018-12-25T02:47:13.519Z,2.30
2018-12-25T02:50:02.274Z,2.30
2018-12-25T02:52:51.062Z,2.40
2018-12-25T02:55:39.900Z,2.30
2018-12-25T02:58:28.779Z,2.40
2018-12-25T03:01:17.650Z,2.40
2018-12-25T03:04:18.666Z,2.40
2018-12-25T03:06:56.910Z,2.40
2018-12-25T03:09:45.758Z,2.50
2018-12-25T03:12:34.427Z,2.50
2018-12-25T03:18:16.975Z,2.50
2018-12-25T03:20:58.398Z,2.60
2018-12-25T03:23:39.797Z,2.60
2018-12-25T03:26:21.116Z,2.60
2018-12-25T03:29:02.245Z,2.60
2018-12-25T03:31:43.703Z,2.60
2018-12-25T03:34:25.024Z,2.60
2018-12-25T03:37:06.236Z,2.60
2018-12-25T03:39:47.830Z,2.60
2018-12-25T03:42:28.925Z,2.70
2018-12-25T03:45:10.225Z,2.70
2018-12-25T03:47:51.340Z,2.70
2018-12-25T03:50:32.719Z,2.70
2018-12-25T03:53:14.392Z,2.70
2018-12-25T03:55:55.600Z,2.70
2018-12-25T03:58:37.354Z,2.70
2018-12-25T04:01:07.152Z,2.70
2018-12-25T04:03:55.965Z,2.70
2018-12-25T04:06:44.884Z,2.60
2018-12-25T04:09:26.187Z,2.60
2018-12-25T04:12:07.858Z,2.60
2018-12-25T04:14:49.595Z,2.70
2018-12-25T04:17:30.740Z,2.60
2018-12-25T04:20:19.667Z,2.60
2018-12-25T04:22:54.462Z,2.60
2018-12-25T04:25:35.971Z,2.60
2018-12-25T04:28:05.873Z,2.50
2018-12-25T04:30:54.587Z,2.50
2018-12-25T04:33:36.002Z,2.50
2018-12-25T04:36:05.827Z,2.50
2018-12-25T04:38:54.613Z,2.50
2018-12-25T04:41:35.723Z,2.50
2018-12-25T04:44:17.108Z,2.50
2018-12-25T04:46:58.277Z,2.50
2018-12-25T04:49:39.318Z,2.50
2018-12-25T04:52:09.199Z,2.50
2018-12-25T04:54:58.022Z,2.50
2018-12-25T04:57:39.691Z,2.60
2018-12-25T05:00:09.467Z,2.60
2018-12-25T05:02:50.970Z,2.60
2018-12-25T05:05:32.240Z,2.70
2018-12-25T05:08:13.810Z,2.70
2018-12-25T05:10:55.041Z,2.80
2018-12-25T05:13:36.726Z,2.70
2018-12-25T05:16:18.520Z,2.80
2018-12-25T05:18:59.919Z,2.80
2018-12-25T05:21:41.272Z,2.80
2018-12-25T05:24:10.990Z,2.80
2018-12-25T05:26:59.759Z,2.80
2018-12-25T05:29:48.436Z,2.70
2018-12-25T05:32:37.554Z,2.70
2018-12-25T05:35:18.600Z,2.70
2018-12-25T05:37:59.668Z,2.70
2018-12-25T05:40:40.591Z,2.80
2018-12-25T05:43:21.879Z,2.80
2018-12-25T05:46:03.103Z,2.80
2018-12-25T05:48:44.610Z,2.80
2018-12-25T05:51:14.507Z,2.80
2018-12-25T05:54:03.314Z,2.80
2018-12-25T05:56:44.507Z,2.90
2018-12-25T05:59:14.247Z,2.90
2018-12-25T06:02:02.975Z,2.90
2018-12-25T06:04:44.763Z,2.90
2018-12-25T06:07:14.518Z,3.00
2018-12-25T06:10:03.375Z,3.00
2018-12-25T06:12:44.324Z,3.00
2018-12-25T06:15:14.421Z,3.00
2018-12-25T06:17:56.152Z,3.00
2018-12-25T06:20:37.480Z,3.00
2018-12-25T06:23:20.553Z,3.00
2018-12-25T06:26:02.186Z,3.00
2018-12-25T06:28:43.744Z,3.00
2018-12-25T06:31:25.230Z,3.10
2018-12-25T06:34:06.498Z,3.10
2018-12-25T06:36:47.490Z,3.10
2018-12-25T06:39:17.381Z,3.10
2018-12-25T06:42:06.150Z,3.10
2018-12-25T06:44:47.744Z,3.20
2018-12-25T06:47:17.557Z,3.20
2018-12-25T06:50:06.416Z,3.20
2018-12-25T06:52:55.195Z,3.20
2018-12-25T06:55:36.521Z,3.20
2018-12-25T06:58:17.824Z,3.20
2018-12-25T07:00:59.094Z,3.20
2018-12-25T07:03:40.732Z,3.20
2018-12-25T07:06:21.862Z,3.20
2018-12-25T07:09:04.124Z,3.20
2018-12-25T07:11:46.680Z,3.10
2018-12-25T07:14:28.369Z,2.90
2018-12-25T07:17:10.068Z,3.10
2018-12-25T07:19:51.754Z,3.00
2018-12-25T07:22:21.869Z,3.00
2018-12-25T07:25:10.751Z,3.00
2018-12-25T07:27:51.860Z,3.00
2018-12-25T07:30:21.822Z,3.00
2018-12-25T07:33:10.570Z,3.00
2018-12-25T07:35:52.054Z,3.00
2018-12-25T07:38:21.773Z,3.00
2018-12-25T07:41:03.658Z,3.00
2018-12-25T07:43:44.841Z,3.00
2018-12-25T07:46:25.836Z,2.90
2018-12-25T07:49:07.213Z,2.90
2018-12-25T07:51:48.552Z,3.00
2018-12-25T07:54:30.140Z,2.90
2018-12-25T07:57:11.305Z,3.00
2018-12-25T07:59:52.974Z,3.00
2018-12-25T08:02:23.181Z,3.00
2018-12-25T08:05:11.856Z,3.00
2018-12-25T08:07:53.199Z,3.10
2018-12-25T08:10:23.030Z,3.10
2018-12-25T08:13:12.002Z,3.10
2018-12-25T08:15:53.910Z,3.10
2018-12-25T08:21:18.103Z,3.20
2018-12-25T08:24:07.245Z,3.30
2018-12-25T08:26:48.232Z,3.30
2018-12-25T08:29:29.536Z,3.30
2018-12-25T08:32:10.780Z,3.40
2018-12-25T08:34:51.891Z,3.40
2018-12-25T08:37:34.830Z,3.50
2018-12-25T08:40:15.709Z,3.50
2018-12-25T08:42:57.287Z,3.50
2018-12-25T08:45:27.285Z,3.60
2018-12-25T08:48:16.088Z,3.60
2018-12-25T08:50:57.428Z,3.80
2018-12-25T08:53:27.294Z,3.80
2018-12-25T08:56:16.064Z,3.80
2018-12-25T08:58:57.107Z,3.80
2018-12-25T09:01:27.083Z,3.80
2018-12-25T09:04:08.286Z,3.90
2018-12-25T09:06:49.641Z,3.90
2018-12-25T09:09:31.128Z,3.90
2018-12-25T09:12:12.681Z,3.90
2018-12-25T09:14:53.915Z,4.00
2018-12-25T09:17:35.593Z,4.00
2018-12-25T09:20:16.796Z,4.00
2018-12-25T09:22:58.026Z,4.00
2018-12-25T09:25:27.960Z,4.10
2018-12-25T09:28:16.931Z,4.10
2018-12-25T09:30:58.141Z,4.10
2018-12-25T09:33:28.142Z,4.20
2018-12-25T09:36:16.933Z,4.20
2018-12-25T09:38:46.909Z,4.20
2018-12-25T09:41:35.637Z,4.20
2018-12-25T09:44:17.046Z,4.20
2018-12-25T09:46:58.315Z,4.30
2018-12-25T09:49:39.919Z,4.30
2018-12-25T09:52:21.464Z,4.40
2018-12-25T09:55:02.831Z,4.40
2018-12-25T09:57:32.810Z,4.40
2018-12-25T10:00:21.587Z,4.50
2018-12-25T10:03:03.571Z,4.50
2018-12-25T10:05:33.383Z,4.50
2018-12-25T10:08:22.793Z,4.60
2018-12-25T10:11:04.350Z,4.60
2018-12-25T10:13:45.532Z,4.70
2018-12-25T10:16:27.008Z,4.70
2018-12-25T10:19:08.311Z,4.70
2018-12-25T10:21:49.439Z,4.80
2018-12-25T10:24:30.992Z,4.80
2018-12-25T10:27:13.348Z,4.90
2018-12-25T10:29:54.914Z,4.90
2018-12-25T10:32:36.260Z,4.90
2018-12-25T10:35:17.959Z,4.90
2018-12-25T10:37:59.079Z,4.90
2018-12-25T10:40:40.697Z,4.90
2018-12-25T10:43:21.853Z,5.00
2018-12-25T10:46:03.471Z,5.00
2018-12-25T10:48:33.256Z,5.00
2018-12-25T10:51:22.361Z,5.00
2018-12-25T10:54:03.730Z,5.00
2018-12-25T10:56:33.539Z,5.00
2018-12-25T10:59:22.373Z,5.10
2018-12-25T11:02:03.551Z,5.10
2018-12-25T11:04:44.739Z,5.10
2018-12-25T11:07:26.423Z,5.10
2018-12-25T11:10:07.723Z,5.10
2018-12-25T11:12:48.799Z,5.20
2018-12-25T11:15:31.086Z,5.20
2018-12-25T11:18:12.108Z,5.20
2018-12-25T11:20:53.779Z,5.20
2018-12-25T11:23:35.258Z,5.20
2018-12-25T11:26:16.495Z,5.20
2018-12-25T11:28:58.014Z,5.30
2018-12-25T11:31:39.085Z,5.30
2018-12-25T11:34:20.639Z,5.30
2018-12-25T11:37:01.815Z,5.40
2018-12-25T11:39:43.655Z,5.40
2018-12-25T11:42:25.286Z,5.40
2018-12-25T11:45:06.693Z,5.40
2018-12-25T11:47:48.118Z,5.40
2018-12-25T11:50:29.592Z,5.50
2018-12-25T11:53:10.951Z,5.50
2018-12-25T11:55:54.990Z,5.50
2018-12-25T11:58:52.575Z,5.50
2018-12-25T12:01:41.535Z,5.50
2018-12-25T12:04:23.039Z,5.60
2018-12-25T12:07:04.032Z,5.60
2018-12-25T12:09:45.317Z,5.60
2018-12-25T12:12:27.081Z,5.60
2018-12-25T12:15:08.317Z,5.70
2018-12-25T12:17:49.419Z,5.70
2018-12-25T12:20:30.862Z,5.80
2018-12-25T12:23:12.385Z,5.80
2018-12-25T12:25:42.174Z,5.80
2018-12-25T12:28:43.161Z,5.90
2018-12-25T12:31:14.296Z,5.90
2018-12-25T12:33:44.408Z,5.90
2018-12-25T12:36:33.419Z,6.00
2018-12-25T12:39:15.192Z,6.00
2018-12-25T12:41:56.727Z,5.90
2018-12-25T12:44:38.497Z,6.00
2018-12-25T12:47:21.660Z,6.00
2018-12-25T12:50:02.891Z,6.00
2018-12-25T12:52:45.599Z,6.00
2018-12-25T12:55:27.043Z,6.10
2018-12-25T12:58:08.176Z,6.00
2018-12-25T13:00:49.700Z,6.10
2018-12-25T13:03:30.925Z,6.10
2018-12-25T13:06:12.088Z,6.10
2018-12-25T13:08:42.177Z,6.10
2018-12-25T13:11:30.953Z,6.20
2018-12-25T13:14:20.046Z,6.20
2018-12-25T13:17:11.160Z,6.20
2018-12-25T13:19:59.935Z,6.20
2018-12-25T13:22:53.981Z,6.20
2018-12-25T13:25:39.745Z,6.20
2018-12-25T13:28:30.740Z,6.20
2018-12-25T13:31:19.742Z,6.20
2018-12-25T13:34:08.604Z,6.20
2018-12-25T13:36:57.468Z,6.20
2018-12-25T13:39:46.362Z,6.20
2018-12-25T13:42:35.236Z,6.20
2018-12-25T13:45:24.184Z,6.20
2018-12-25T13:48:13.067Z,6.20
2018-12-25T13:51:02.137Z,6.20
2018-12-25T13:54:36.456Z,6.20
2018-12-25T13:57:14.273Z,6.20
2018-12-25T14:00:03.203Z,6.20
2018-12-25T14:03:10.932Z,6.20
2018-12-25T14:05:59.883Z,6.20
2018-12-25T14:08:52.063Z,6.20
2018-12-25T14:11:33.822Z,6.20
2018-12-25T14:14:15.030Z,6.20
2018-12-25T14:16:57.482Z,6.20
2018-12-25T14:19:38.765Z,6.20
2018-12-25T14:22:20.875Z,6.20
2018-12-25T14:24:51.305Z,6.20
2018-12-25T14:27:40.256Z,6.20
2018-12-25T14:30:29.157Z,6.20
2018-12-25T14:33:38.339Z,6.20
2018-12-25T14:36:27.388Z,6.20
2018-12-25T14:39:17.773Z,6.20
2018-12-25T14:42:06.985Z,6.10
2018-12-25T14:44:56.112Z,6.10
2018-12-25T14:47:47.764Z,6.10
2018-12-25T14:50:37.015Z,6.00
2018-12-25T14:57:10.093Z,5.90
2018-12-25T14:59:48.368Z,5.90
2018-12-25T15:02:38.964Z,5.80
2018-12-25T15:05:30.945Z,5.70
2018-12-25T15:08:20.613Z,5.70
2018-12-25T15:11:09.695Z,5.60
2018-12-25T15:13:58.810Z,5.70
2018-12-25T15:16:47.757Z,5.70
2018-12-25T15:19:36.937Z,5.70
2018-12-25T15:22:25.798Z,5.70
2018-12-25T15:24:56.325Z,5.70
2018-12-25T15:27:37.940Z,5.80
2018-12-25T15:38:58.783Z,5.80
2018-12-25T15:41:48.213Z,5.90
2018-12-25T15:56:45.876Z,6.00
2018-12-25T16:08:58.467Z,6.00
2018-12-25T16:18:25.082Z,6.00
2018-12-25T16:40:58.187Z,6.10
2018-12-25T16:52:15.718Z,6.10
2018-12-25T16:55:34.533Z,6.10
2018-12-25T17:00:44.580Z,6.00
2018-12-25T17:03:25.885Z,6.10
2018-12-25T17:06:07.369Z,6.10
2018-12-25T17:23:43.441Z,5.70
2018-12-25T17:51:50.907Z,6.00
2018-12-25T18:03:36.735Z,6.10
2018-12-25T18:06:24.882Z,6.10
2018-12-25T18:09:09.504Z,6.10
2018-12-25T19:25:15.240Z,6.20
2018-12-25T19:36:47.780Z,6.20
2018-12-25T19:40:23.579Z,6.20
2018-12-25T19:45:24.527Z,6.20
2018-12-25T20:16:09.175Z,6.10
2018-12-25T20:21:39.384Z,6.20
2018-12-25T20:28:11.856Z,6.20
2018-12-25T20:33:41.288Z,6.20
2018-12-25T20:42:56.623Z,6.20
2018-12-25T20:48:52.661Z,6.20
2018-12-25T21:03:40.482Z,6.20
2018-12-25T21:06:50.034Z,6.30
2018-12-25T21:09:34.644Z,6.30
2018-12-25T21:12:44.304Z,6.20
2018-12-25T21:15:09.543Z,6.30
2018-12-25T21:18:22.304Z,6.30
2018-12-25T21:23:53.420Z,6.30
2018-12-25T21:26:40.743Z,6.30
2018-12-25T21:29:40.348Z,6.30
2018-12-25T21:32:00.540Z,6.30
2018-12-25T21:34:47.459Z,6.30
2018-12-25T21:37:31.593Z,6.30
2018-12-25T21:46:07.694Z,6.30
2018-12-25T21:54:43.791Z,6.30
2018-12-25T22:13:10.717Z,6.30
2018-12-25T22:14:26.209Z,6.30
2018-12-25T22:16:12.571Z,6.30
2018-12-25T22:21:33.992Z,6.30
2018-12-25T22:24:17.348Z,6.30
2018-12-25T22:33:10.337Z,6.30
2018-12-25T22:44:34.837Z,6.20
2018-12-25T22:47:16.097Z,6.20
2018-12-25T22:50:02.531Z,6.10
2018-12-25T22:52:41.526Z,6.20
2018-12-25T22:55:12.331Z,6.20
2018-12-25T22:58:04.295Z,6.20
2018-12-25T23:00:45.927Z,6.20
2018-12-25T23:03:27.625Z,6.20
2018-12-25T23:06:09.006Z,6.10
2018-12-25T23:08:52.190Z,6.20
2018-12-25T23:11:33.847Z,6.20
2018-12-25T23:14:18.300Z,6.20
2018-12-25T23:16:59.453Z,6.20
2018-12-25T23:19:43.385Z,6.10
2018-12-25T23:25:28.294Z,6.20
2018-12-25T23:30:56.322Z,6.10
2018-12-25T23:33:41.772Z,6.10
2018-12-25T23:36:31.326Z,6.10
2018-12-25T23:39:21.930Z,6.10
2018-12-25T23:48:13.441Z,5.90
2018-12-25T23:53:36.144Z,5.90
2018-12-25T23:59:06.514Z,5.90
